KBML/BML METAR and TAF weather

Enter ICAO airport designator
Station Type Date Time Source
KBML METAR 2018/10/21 03:52 UTC NOAA

KBML 210352Z AUTO 00000KT 10SM FEW046 02/M01 A2958 RMK AO2 SLP023 T00171006


Station Type Date Time Source
KBML Decoded METAR 2018/10/21 03:52 UTC NOAA

BERLIN MUNICIPAL AIRPORT, NH, United States (KBML) 44-35N 71-11W 345M
Oct 20, 2018 - 11:52 PM EDT / 2018.10.21 0352 UTC
Wind: Calm:0
Visibility: 10 mile(s):0
Sky conditions: mostly clear
Temperature: 35.1 F (1.7 C)
Dew Point: 30.9 F (-0.6 C)
Relative Humidity: 84%
Pressure (altimeter): 29.58 in. Hg (1001 hPa)
ob: KBML 210352Z AUTO 00000KT 10SM FEW046 02/M01 A2958 RMK AO2 SLP023 T00171006
cycle: 4

Station Type Date Time Source
KBML TAF UTC NOAA

Error!


Example: see airport list